sensor_id;sensor_type;location;lat;lon;timestamp;temperature;humidity
15113;DHT22;7657;50.140;7.076;2023-08-17T00:01:32;18.00;99.90
15113;DHT22;7657;50.140;7.076;2023-08-17T00:03:59;17.90;99.90
15113;DHT22;7657;50.140;7.076;2023-08-17T00:06:26;17.90;99.90
15113;DHT22;7657;50.140;7.076;2023-08-17T00:08:53;17.90;99.90
15113;DHT22;7657;50.140;7.076;2023-08-17T00:11:20;18.10;99.90
15113;DHT22;7657;50.140;7.076;2023-08-17T00:13:47;18.20;99.90
15113;DHT22;7657;50.140;7.076;2023-08-17T00:16:15;18.40;99.90
15113;DHT22;7657;50.140;7.076;2023-08-17T00:18:42;18.50;99.90
15113;DHT22;7657;50.140;7.076;2023-08-17T00:21:09;18.60;99.90
15113;DHT22;7657;50.140;7.076;2023-08-17T00:23:36;18.60;99.90
15113;DHT22;7657;50.140;7.076;2023-08-17T00:26:03;18.60;99.90
15113;DHT22;7657;50.140;7.076;2023-08-17T00:28:29;18.70;99.90
15113;DHT22;7657;50.140;7.076;2023-08-17T00:30:56;18.70;99.90
15113;DHT22;7657;50.140;7.076;2023-08-17T00:33:25;18.70;99.90
15113;DHT22;7657;50.140;7.076;2023-08-17T00:35:51;18.70;99.90
15113;DHT22;7657;50.140;7.076;2023-08-17T00:38:18;18.70;99.90
15113;DHT22;7657;50.140;7.076;2023-08-17T00:40:46;18.80;99.90
15113;DHT22;7657;50.140;7.076;2023-08-17T00:43:13;18.80;99.90
15113;DHT22;7657;50.140;7.076;2023-08-17T00:45:40;18.80;99.90
15113;DHT22;7657;50.140;7.076;2023-08-17T00:48:08;18.80;99.90
15113;DHT22;7657;50.140;7.076;2023-08-17T00:50:37;18.80;99.90
15113;DHT22;7657;50.140;7.076;2023-08-17T00:53:04;18.90;99.90
15113;DHT22;7657;50.140;7.076;2023-08-17T00:55:33;18.90;99.90
15113;DHT22;7657;50.140;7.076;2023-08-17T00:58:00;19.00;99.90
15113;DHT22;7657;50.140;7.076;2023-08-17T01:00:27;19.00;99.90
15113;DHT22;7657;50.140;7.076;2023-08-17T01:02:55;18.90;99.90
15113;DHT22;7657;50.140;7.076;2023-08-17T01:05:22;18.90;99.90
15113;DHT22;7657;50.140;7.076;2023-08-17T01:07:51;18.90;99.90
15113;DHT22;7657;50.140;7.076;2023-08-17T01:10:18;18.90;99.90
15113;DHT22;7657;50.140;7.076;2023-08-17T01:12:52;18.90;99.90
15113;DHT22;7657;50.140;7.076;2023-08-17T01:15:24;18.90;99.90
15113;DHT22;7657;50.140;7.076;2023-08-17T01:17:56;18.90;99.90
15113;DHT22;7657;50.140;7.076;2023-08-17T01:20:24;18.80;99.90
15113;DHT22;7657;50.140;7.076;2023-08-17T01:22:55;18.80;99.90
15113;DHT22;7657;50.140;7.076;2023-08-17T01:25:25;18.80;99.90
15113;DHT22;7657;50.140;7.076;2023-08-17T01:27:52;18.80;99.90
15113;DHT22;7657;50.140;7.076;2023-08-17T01:30:19;18.80;99.90
15113;DHT22;7657;50.140;7.076;2023-08-17T01:32:50;18.80;99.90
15113;DHT22;7657;50.140;7.076;2023-08-17T01:35:23;18.90;99.90
15113;DHT22;7657;50.140;7.076;2023-08-17T01:37:53;18.90;99.90
15113;DHT22;7657;50.140;7.076;2023-08-17T01:40:22;19.00;99.90
15113;DHT22;7657;50.140;7.076;2023-08-17T01:42:51;19.00;99.90
15113;DHT22;7657;50.140;7.076;2023-08-17T01:45:18;19.00;99.90
15113;DHT22;7657;50.140;7.076;2023-08-17T01:47:45;19.00;99.90
15113;DHT22;7657;50.140;7.076;2023-08-17T01:50:12;19.10;99.90
15113;DHT22;7657;50.140;7.076;2023-08-17T01:52:39;19.10;99.90
15113;DHT22;7657;50.140;7.076;2023-08-17T01:55:06;19.10;99.90
15113;DHT22;7657;50.140;7.076;2023-08-17T01:57:33;19.10;99.90
15113;DHT22;7657;50.140;7.076;2023-08-17T02:00:03;19.20;99.90
15113;DHT22;7657;50.140;7.076;2023-08-17T02:02:30;19.10;99.90
15113;DHT22;7657;50.140;7.076;2023-08-17T02:04:57;19.20;99.90
15113;DHT22;7657;50.140;7.076;2023-08-17T02:07:24;19.20;99.90
15113;DHT22;7657;50.140;7.076;2023-08-17T02:09:51;19.20;99.90
15113;DHT22;7657;50.140;7.076;2023-08-17T02:12:18;19.20;99.90
15113;DHT22;7657;50.140;7.076;2023-08-17T02:14:45;19.30;99.90
15113;DHT22;7657;50.140;7.076;2023-08-17T02:17:13;19.20;99.90
15113;DHT22;7657;50.140;7.076;2023-08-17T02:19:42;19.30;99.90
15113;DHT22;7657;50.140;7.076;2023-08-17T02:22:09;19.30;99.90
15113;DHT22;7657;50.140;7.076;2023-08-17T02:24:36;19.30;99.90
15113;DHT22;7657;50.140;7.076;2023-08-17T02:27:03;19.30;99.90
15113;DHT22;7657;50.140;7.076;2023-08-17T02:29:30;19.10;99.90
15113;DHT22;7657;50.140;7.076;2023-08-17T02:31:57;19.10;99.90
15113;DHT22;7657;50.140;7.076;2023-08-17T02:34:26;19.00;99.90
15113;DHT22;7657;50.140;7.076;2023-08-17T02:36:53;19.00;99.90
15113;DHT22;7657;50.140;7.076;2023-08-17T02:39:20;19.10;99.90
15113;DHT22;7657;50.140;7.076;2023-08-17T02:41:47;19.10;99.90
15113;DHT22;7657;50.140;7.076;2023-08-17T02:44:15;19.10;99.90
15113;DHT22;7657;50.140;7.076;2023-08-17T02:46:41;19.10;99.90
15113;DHT22;7657;50.140;7.076;2023-08-17T02:49:08;19.10;99.90
15113;DHT22;7657;50.140;7.076;2023-08-17T02:51:37;19.20;99.90
15113;DHT22;7657;50.140;7.076;2023-08-17T02:54:04;19.20;99.90
15113;DHT22;7657;50.140;7.076;2023-08-17T02:56:31;19.10;99.90
15113;DHT22;7657;50.140;7.076;2023-08-17T02:58:58;19.20;99.90
15113;DHT22;7657;50.140;7.076;2023-08-17T03:01:25;19.20;99.90
15113;DHT22;7657;50.140;7.076;2023-08-17T03:03:52;19.30;99.90
15113;DHT22;7657;50.140;7.076;2023-08-17T03:06:19;19.30;99.90
15113;DHT22;7657;50.140;7.076;2023-08-17T03:08:47;19.30;99.90
15113;DHT22;7657;50.140;7.076;2023-08-17T03:11:14;19.30;99.90
15113;DHT22;7657;50.140;7.076;2023-08-17T03:13:41;19.30;99.90
15113;DHT22;7657;50.140;7.076;2023-08-17T03:16:07;19.40;99.90
15113;DHT22;7657;50.140;7.076;2023-08-17T03:18:34;19.40;99.90
15113;DHT22;7657;50.140;7.076;2023-08-17T03:21:01;19.40;99.90
15113;DHT22;7657;50.140;7.076;2023-08-17T03:23:28;19.40;99.90
15113;DHT22;7657;50.140;7.076;2023-08-17T03:25:56;19.40;99.90
15113;DHT22;7657;50.140;7.076;2023-08-17T03:28:23;19.40;99.90
15113;DHT22;7657;50.140;7.076;2023-08-17T03:30:55;19.40;99.90
15113;DHT22;7657;50.140;7.076;2023-08-17T03:33:21;19.40;99.90
15113;DHT22;7657;50.140;7.076;2023-08-17T03:35:48;19.40;99.90
15113;DHT22;7657;50.140;7.076;2023-08-17T03:38:15;19.40;99.90
15113;DHT22;7657;50.140;7.076;2023-08-17T03:40:42;19.40;99.90
15113;DHT22;7657;50.140;7.076;2023-08-17T03:43:10;19.50;99.90
15113;DHT22;7657;50.140;7.076;2023-08-17T03:45:38;19.40;99.90
15113;DHT22;7657;50.140;7.076;2023-08-17T03:48:05;19.40;99.90
15113;DHT22;7657;50.140;7.076;2023-08-17T03:50:32;19.40;99.90
15113;DHT22;7657;50.140;7.076;2023-08-17T03:52:59;19.40;99.90
15113;DHT22;7657;50.140;7.076;2023-08-17T03:55:26;19.50;99.90
15113;DHT22;7657;50.140;7.076;2023-08-17T03:57:53;19.50;99.90
15113;DHT22;7657;50.140;7.076;2023-08-17T04:00:21;19.40;99.90
15113;DHT22;7657;50.140;7.076;2023-08-17T04:02:48;19.40;99.90
15113;DHT22;7657;50.140;7.076;2023-08-17T04:05:15;19.40;99.90
15113;DHT22;7657;50.140;7.076;2023-08-17T04:07:42;19.40;99.90
15113;DHT22;7657;50.140;7.076;2023-08-17T04:10:09;19.40;99.90
15113;DHT22;7657;50.140;7.076;2023-08-17T04:12:36;19.40;99.90
15113;DHT22;7657;50.140;7.076;2023-08-17T04:15:04;19.40;99.90
15113;DHT22;7657;50.140;7.076;2023-08-17T04:17:32;19.40;99.90
15113;DHT22;7657;50.140;7.076;2023-08-17T04:19:59;19.40;99.90
15113;DHT22;7657;50.140;7.076;2023-08-17T04:22:26;19.40;99.90
15113;DHT22;7657;50.140;7.076;2023-08-17T04:24:53;19.40;99.90
15113;DHT22;7657;50.140;7.076;2023-08-17T04:27:19;19.40;99.90
15113;DHT22;7657;50.140;7.076;2023-08-17T04:29:46;19.30;99.90
15113;DHT22;7657;50.140;7.076;2023-08-17T04:32:16;19.30;99.90
15113;DHT22;7657;50.140;7.076;2023-08-17T04:34:45;19.40;99.90
15113;DHT22;7657;50.140;7.076;2023-08-17T04:37:12;19.30;99.90
15113;DHT22;7657;50.140;7.076;2023-08-17T04:39:39;19.40;99.90
15113;DHT22;7657;50.140;7.076;2023-08-17T04:42:06;19.30;99.90
15113;DHT22;7657;50.140;7.076;2023-08-17T04:44:33;19.30;99.90
15113;DHT22;7657;50.140;7.076;2023-08-17T04:47:00;19.40;99.90
15113;DHT22;7657;50.140;7.076;2023-08-17T04:49:27;19.40;99.90
15113;DHT22;7657;50.140;7.076;2023-08-17T04:51:55;19.40;99.90
15113;DHT22;7657;50.140;7.076;2023-08-17T04:54:22;19.40;99.90
15113;DHT22;7657;50.140;7.076;2023-08-17T04:56:49;19.40;99.90
15113;DHT22;7657;50.140;7.076;2023-08-17T04:59:16;19.40;99.90
15113;DHT22;7657;50.140;7.076;2023-08-17T05:01:43;19.40;99.90
15113;DHT22;7657;50.140;7.076;2023-08-17T05:04:10;19.40;99.90
15113;DHT22;7657;50.140;7.076;2023-08-17T05:06:37;19.50;99.90
15113;DHT22;7657;50.140;7.076;2023-08-17T05:09:05;19.50;99.90
15113;DHT22;7657;50.140;7.076;2023-08-17T05:11:33;19.40;99.90
15113;DHT22;7657;50.140;7.076;2023-08-17T05:14:00;19.50;99.90
15113;DHT22;7657;50.140;7.076;2023-08-17T05:16:26;19.50;99.90
15113;DHT22;7657;50.140;7.076;2023-08-17T05:18:53;19.50;99.90
15113;DHT22;7657;50.140;7.076;2023-08-17T05:21:21;19.40;99.90
15113;DHT22;7657;50.140;7.076;2023-08-17T05:23:48;19.50;99.90
15113;DHT22;7657;50.140;7.076;2023-08-17T05:26:16;19.50;99.90
15113;DHT22;7657;50.140;7.076;2023-08-17T05:28:44;19.50;99.90
15113;DHT22;7657;50.140;7.076;2023-08-17T05:31:11;19.40;99.90
15113;DHT22;7657;50.140;7.076;2023-08-17T05:33:37;19.50;99.90
15113;DHT22;7657;50.140;7.076;2023-08-17T05:36:06;19.50;99.90
15113;DHT22;7657;50.140;7.076;2023-08-17T05:38:33;19.50;99.90
15113;DHT22;7657;50.140;7.076;2023-08-17T05:41:00;19.50;99.90
15113;DHT22;7657;50.140;7.076;2023-08-17T05:43:29;19.50;99.90
15113;DHT22;7657;50.140;7.076;2023-08-17T05:45:57;19.50;99.90
15113;DHT22;7657;50.140;7.076;2023-08-17T05:48:25;19.50;99.90
15113;DHT22;7657;50.140;7.076;2023-08-17T05:50:52;19.50;99.90
15113;DHT22;7657;50.140;7.076;2023-08-17T05:53:19;19.40;99.90
15113;DHT22;7657;50.140;7.076;2023-08-17T05:55:46;19.50;99.90
15113;DHT22;7657;50.140;7.076;2023-08-17T05:58:13;19.50;99.90
15113;DHT22;7657;50.140;7.076;2023-08-17T06:00:41;19.50;99.90
15113;DHT22;7657;50.140;7.076;2023-08-17T06:03:08;19.60;99.90
15113;DHT22;7657;50.140;7.076;2023-08-17T06:05:36;19.60;99.90
15113;DHT22;7657;50.140;7.076;2023-08-17T06:08:03;19.50;99.90
15113;DHT22;7657;50.140;7.076;2023-08-17T06:10:30;19.50;99.90
15113;DHT22;7657;50.140;7.076;2023-08-17T06:12:57;19.50;99.90
15113;DHT22;7657;50.140;7.076;2023-08-17T06:15:24;19.50;99.90
15113;DHT22;7657;50.140;7.076;2023-08-17T06:17:53;19.60;99.90
15113;DHT22;7657;50.140;7.076;2023-08-17T06:20:20;19.60;99.90
15113;DHT22;7657;50.140;7.076;2023-08-17T06:22:47;19.60;99.90
15113;DHT22;7657;50.140;7.076;2023-08-17T06:25:14;19.60;99.90
15113;DHT22;7657;50.140;7.076;2023-08-17T06:27:42;19.70;99.90
15113;DHT22;7657;50.140;7.076;2023-08-17T06:30:10;19.70;99.90
15113;DHT22;7657;50.140;7.076;2023-08-17T06:32:38;19.70;99.90
15113;DHT22;7657;50.140;7.076;2023-08-17T06:35:07;19.70;99.90
15113;DHT22;7657;50.140;7.076;2023-08-17T06:37:35;19.70;99.90
15113;DHT22;7657;50.140;7.076;2023-08-17T06:40:02;19.80;99.90
15113;DHT22;7657;50.140;7.076;2023-08-17T06:42:31;19.80;99.90
15113;DHT22;7657;50.140;7.076;2023-08-17T06:44:58;19.80;99.90
15113;DHT22;7657;50.140;7.076;2023-08-17T06:47:24;19.90;99.90
15113;DHT22;7657;50.140;7.076;2023-08-17T06:49:51;19.90;99.90
15113;DHT22;7657;50.140;7.076;2023-08-17T06:52:20;19.80;99.90
15113;DHT22;7657;50.140;7.076;2023-08-17T06:54:46;19.90;99.90
15113;DHT22;7657;50.140;7.076;2023-08-17T06:57:13;19.90;99.90
15113;DHT22;7657;50.140;7.076;2023-08-17T06:59:40;19.90;99.90
15113;DHT22;7657;50.140;7.076;2023-08-17T07:02:07;19.80;99.90
15113;DHT22;7657;50.140;7.076;2023-08-17T07:04:34;19.90;99.90
15113;DHT22;7657;50.140;7.076;2023-08-17T07:07:01;19.90;99.90
15113;DHT22;7657;50.140;7.076;2023-08-17T07:09:30;19.90;99.90
15113;DHT22;7657;50.140;7.076;2023-08-17T07:11:57;20.00;99.90
15113;DHT22;7657;50.140;7.076;2023-08-17T07:14:24;20.00;99.90
15113;DHT22;7657;50.140;7.076;2023-08-17T07:16:51;20.10;99.90
15113;DHT22;7657;50.140;7.076;2023-08-17T07:19:18;20.10;99.90
15113;DHT22;7657;50.140;7.076;2023-08-17T07:21:45;20.20;99.90
15113;DHT22;7657;50.140;7.076;2023-08-17T07:24:13;20.20;99.90
15113;DHT22;7657;50.140;7.076;2023-08-17T07:26:41;20.30;99.90
15113;DHT22;7657;50.140;7.076;2023-08-17T07:29:08;20.40;99.90
15113;DHT22;7657;50.140;7.076;2023-08-17T07:31:37;20.40;99.90
15113;DHT22;7657;50.140;7.076;2023-08-17T07:34:04;20.40;99.90
15113;DHT22;7657;50.140;7.076;2023-08-17T07:36:31;20.50;99.90
15113;DHT22;7657;50.140;7.076;2023-08-17T07:38:58;20.50;99.90
15113;DHT22;7657;50.140;7.076;2023-08-17T07:41:25;20.60;99.90
15113;DHT22;7657;50.140;7.076;2023-08-17T07:43:54;20.60;99.90
15113;DHT22;7657;50.140;7.076;2023-08-17T07:46:20;20.60;99.90
15113;DHT22;7657;50.140;7.076;2023-08-17T07:48:47;20.70;99.90
15113;DHT22;7657;50.140;7.076;2023-08-17T07:51:14;20.80;99.90
15113;DHT22;7657;50.140;7.076;2023-08-17T07:53:41;20.80;99.90
15113;DHT22;7657;50.140;7.076;2023-08-17T07:56:08;20.80;99.90
15113;DHT22;7657;50.140;7.076;2023-08-17T07:58:35;20.80;99.90
15113;DHT22;7657;50.140;7.076;2023-08-17T08:01:03;20.90;99.90
15113;DHT22;7657;50.140;7.076;2023-08-17T08:03:31;20.90;99.90
15113;DHT22;7657;50.140;7.076;2023-08-17T08:05:58;20.90;99.90
15113;DHT22;7657;50.140;7.076;2023-08-17T08:08:24;20.80;99.90
15113;DHT22;7657;50.140;7.076;2023-08-17T08:10:53;20.80;99.90
15113;DHT22;7657;50.140;7.076;2023-08-17T08:13:20;20.90;99.90
15113;DHT22;7657;50.140;7.076;2023-08-17T08:15:48;20.90;99.90
15113;DHT22;7657;50.140;7.076;2023-08-17T08:18:16;20.80;99.90
15113;DHT22;7657;50.140;7.076;2023-08-17T08:20:43;20.80;99.90
15113;DHT22;7657;50.140;7.076;2023-08-17T08:23:10;20.80;99.90
15113;DHT22;7657;50.140;7.076;2023-08-17T08:25:37;20.90;99.90
15113;DHT22;7657;50.140;7.076;2023-08-17T08:28:04;21.00;99.90
15113;DHT22;7657;50.140;7.076;2023-08-17T08:30:31;20.90;99.90
15113;DHT22;7657;50.140;7.076;2023-08-17T08:32:58;20.90;99.90
15113;DHT22;7657;50.140;7.076;2023-08-17T08:35:28;20.90;99.90
15113;DHT22;7657;50.140;7.076;2023-08-17T08:37:55;20.90;99.90
15113;DHT22;7657;50.140;7.076;2023-08-17T08:40:27;20.90;99.90
15113;DHT22;7657;50.140;7.076;2023-08-17T08:42:55;21.00;99.90
15113;DHT22;7657;50.140;7.076;2023-08-17T08:45:23;21.10;99.90
15113;DHT22;7657;50.140;7.076;2023-08-17T08:47:50;21.10;99.90
15113;DHT22;7657;50.140;7.076;2023-08-17T08:50:19;21.20;99.90
15113;DHT22;7657;50.140;7.076;2023-08-17T08:52:50;21.30;99.90
15113;DHT22;7657;50.140;7.076;2023-08-17T08:55:23;21.40;99.90
15113;DHT22;7657;50.140;7.076;2023-08-17T08:57:53;21.40;99.90
15113;DHT22;7657;50.140;7.076;2023-08-17T09:00:21;21.30;99.90
15113;DHT22;7657;50.140;7.076;2023-08-17T09:02:49;21.40;99.90
15113;DHT22;7657;50.140;7.076;2023-08-17T09:05:16;21.40;99.90
15113;DHT22;7657;50.140;7.076;2023-08-17T09:07:43;21.50;99.90
15113;DHT22;7657;50.140;7.076;2023-08-17T09:10:12;21.50;99.90
15113;DHT22;7657;50.140;7.076;2023-08-17T09:12:42;21.50;99.90
15113;DHT22;7657;50.140;7.076;2023-08-17T09:15:09;21.40;99.90
15113;DHT22;7657;50.140;7.076;2023-08-17T09:17:36;21.30;99.90
15113;DHT22;7657;50.140;7.076;2023-08-17T09:20:04;21.20;99.90
15113;DHT22;7657;50.140;7.076;2023-08-17T09:22:40;21.30;99.90
15113;DHT22;7657;50.140;7.076;2023-08-17T09:25:08;21.30;99.90
15113;DHT22;7657;50.140;7.076;2023-08-17T09:27:38;21.40;99.90
15113;DHT22;7657;50.140;7.076;2023-08-17T09:30:08;21.50;99.90
15113;DHT22;7657;50.140;7.076;2023-08-17T09:32:36;21.60;99.90
15113;DHT22;7657;50.140;7.076;2023-08-17T09:35:04;21.60;99.90
15113;DHT22;7657;50.140;7.076;2023-08-17T09:37:32;21.60;99.90
15113;DHT22;7657;50.140;7.076;2023-08-17T09:39:59;21.60;99.90
15113;DHT22;7657;50.140;7.076;2023-08-17T09:42:26;21.60;99.90
15113;DHT22;7657;50.140;7.076;2023-08-17T09:44:55;21.50;99.90
15113;DHT22;7657;50.140;7.076;2023-08-17T09:47:22;21.60;99.90
15113;DHT22;7657;50.140;7.076;2023-08-17T09:49:49;21.70;99.90
15113;DHT22;7657;50.140;7.076;2023-08-17T09:52:16;21.60;99.90
15113;DHT22;7657;50.140;7.076;2023-08-17T09:54:43;21.80;99.90
15113;DHT22;7657;50.140;7.076;2023-08-17T09:57:12;21.80;99.90
15113;DHT22;7657;50.140;7.076;2023-08-17T09:59:39;21.90;99.90
15113;DHT22;7657;50.140;7.076;2023-08-17T10:02:16;22.00;99.90
15113;DHT22;7657;50.140;7.076;2023-08-17T10:04:49;22.10;99.90
15113;DHT22;7657;50.140;7.076;2023-08-17T10:07:19;22.10;99.90
15113;DHT22;7657;50.140;7.076;2023-08-17T10:09:52;22.10;99.90
15113;DHT22;7657;50.140;7.076;2023-08-17T10:12:23;22.10;99.90
15113;DHT22;7657;50.140;7.076;2023-08-17T10:14:55;22.20;99.90
15113;DHT22;7657;50.140;7.076;2023-08-17T10:17:28;22.30;99.90
15113;DHT22;7657;50.140;7.076;2023-08-17T10:19:59;22.40;99.90
15113;DHT22;7657;50.140;7.076;2023-08-17T10:22:30;22.50;99.90
15113;DHT22;7657;50.140;7.076;2023-08-17T10:24:58;22.50;99.90
15113;DHT22;7657;50.140;7.076;2023-08-17T10:27:27;22.60;99.90
15113;DHT22;7657;50.140;7.076;2023-08-17T10:29:54;22.60;99.90
15113;DHT22;7657;50.140;7.076;2023-08-17T10:32:22;22.70;99.90
15113;DHT22;7657;50.140;7.076;2023-08-17T10:34:52;22.60;99.90
15113;DHT22;7657;50.140;7.076;2023-08-17T10:37:20;22.60;99.90
15113;DHT22;7657;50.140;7.076;2023-08-17T10:39:49;22.50;99.90
15113;DHT22;7657;50.140;7.076;2023-08-17T10:42:29;22.40;99.90
15113;DHT22;7657;50.140;7.076;2023-08-17T10:44:57;22.40;99.90
15113;DHT22;7657;50.140;7.076;2023-08-17T10:47:28;22.50;99.90
15113;DHT22;7657;50.140;7.076;2023-08-17T10:49:58;22.60;99.90
15113;DHT22;7657;50.140;7.076;2023-08-17T10:52:27;22.60;99.90
15113;DHT22;7657;50.140;7.076;2023-08-17T10:54:54;22.70;99.90
15113;DHT22;7657;50.140;7.076;2023-08-17T10:57:28;22.80;99.90
15113;DHT22;7657;50.140;7.076;2023-08-17T11:00:20;22.80;99.90
15113;DHT22;7657;50.140;7.076;2023-08-17T11:02:53;22.80;99.90
15113;DHT22;7657;50.140;7.076;2023-08-17T11:05:40;22.70;99.90
15113;DHT22;7657;50.140;7.076;2023-08-17T11:08:08;22.70;99.90
15113;DHT22;7657;50.140;7.076;2023-08-17T11:10:36;22.80;99.90
15113;DHT22;7657;50.140;7.076;2023-08-17T11:13:04;22.90;99.90
15113;DHT22;7657;50.140;7.076;2023-08-17T11:15:36;23.00;99.90
15113;DHT22;7657;50.140;7.076;2023-08-17T11:18:05;23.00;99.90
15113;DHT22;7657;50.140;7.076;2023-08-17T11:20:33;23.20;99.90
15113;DHT22;7657;50.140;7.076;2023-08-17T11:23:01;23.20;99.90
15113;DHT22;7657;50.140;7.076;2023-08-17T11:25:29;23.20;99.90
15113;DHT22;7657;50.140;7.076;2023-08-17T11:27:58;23.30;99.90
15113;DHT22;7657;50.140;7.076;2023-08-17T11:30:26;23.40;99.90
15113;DHT22;7657;50.140;7.076;2023-08-17T11:32:54;23.40;99.90
15113;DHT22;7657;50.140;7.076;2023-08-17T11:35:21;23.50;99.90
15113;DHT22;7657;50.140;7.076;2023-08-17T11:37:49;23.50;99.90
15113;DHT22;7657;50.140;7.076;2023-08-17T11:40:17;23.50;99.90
15113;DHT22;7657;50.140;7.076;2023-08-17T11:42:45;23.50;99.90
15113;DHT22;7657;50.140;7.076;2023-08-17T11:45:13;23.50;99.90
15113;DHT22;7657;50.140;7.076;2023-08-17T11:47:40;23.50;99.90
15113;DHT22;7657;50.140;7.076;2023-08-17T11:50:09;23.50;99.90
15113;DHT22;7657;50.140;7.076;2023-08-17T11:52:37;23.50;99.90
15113;DHT22;7657;50.140;7.076;2023-08-17T11:55:05;23.50;99.90
15113;DHT22;7657;50.140;7.076;2023-08-17T11:57:34;23.60;99.90
15113;DHT22;7657;50.140;7.076;2023-08-17T12:00:02;23.60;99.90
15113;DHT22;7657;50.140;7.076;2023-08-17T12:02:31;23.60;99.90
15113;DHT22;7657;50.140;7.076;2023-08-17T12:05:03;23.60;99.90
15113;DHT22;7657;50.140;7.076;2023-08-17T12:07:32;23.70;99.90
15113;DHT22;7657;50.140;7.076;2023-08-17T12:09:59;23.70;99.90
15113;DHT22;7657;50.140;7.076;2023-08-17T12:12:26;23.70;99.90
15113;DHT22;7657;50.140;7.076;2023-08-17T12:14:56;23.80;99.90
15113;DHT22;7657;50.140;7.076;2023-08-17T12:17:23;23.80;99.90
15113;DHT22;7657;50.140;7.076;2023-08-17T12:19:54;23.80;99.90
15113;DHT22;7657;50.140;7.076;2023-08-17T12:22:24;23.90;99.90
15113;DHT22;7657;50.140;7.076;2023-08-17T12:24:52;23.90;99.90
15113;DHT22;7657;50.140;7.076;2023-08-17T12:27:19;24.00;99.90
15113;DHT22;7657;50.140;7.076;2023-08-17T12:29:48;24.00;99.90
15113;DHT22;7657;50.140;7.076;2023-08-17T12:32:17;24.00;99.90
15113;DHT22;7657;50.140;7.076;2023-08-17T12:34:45;24.10;99.90
15113;DHT22;7657;50.140;7.076;2023-08-17T12:37:12;24.10;99.90
15113;DHT22;7657;50.140;7.076;2023-08-17T12:39:44;24.20;99.90
15113;DHT22;7657;50.140;7.076;2023-08-17T12:42:11;24.10;99.90
15113;DHT22;7657;50.140;7.076;2023-08-17T12:44:39;24.20;99.90
15113;DHT22;7657;50.140;7.076;2023-08-17T12:47:06;24.20;99.90
15113;DHT22;7657;50.140;7.076;2023-08-17T12:49:35;24.20;99.90
15113;DHT22;7657;50.140;7.076;2023-08-17T12:52:02;24.20;99.90
15113;DHT22;7657;50.140;7.076;2023-08-17T12:54:29;24.40;99.90
15113;DHT22;7657;50.140;7.076;2023-08-17T12:56:56;24.40;99.90
15113;DHT22;7657;50.140;7.076;2023-08-17T12:59:23;24.50;99.90
15113;DHT22;7657;50.140;7.076;2023-08-17T13:01:50;24.60;99.90
15113;DHT22;7657;50.140;7.076;2023-08-17T13:04:17;24.60;99.90
15113;DHT22;7657;50.140;7.076;2023-08-17T13:06:45;24.90;99.90
15113;DHT22;7657;50.140;7.076;2023-08-17T13:09:13;24.90;99.90
15113;DHT22;7657;50.140;7.076;2023-08-17T13:11:41;25.20;99.90
15113;DHT22;7657;50.140;7.076;2023-08-17T13:14:08;25.40;99.90
15113;DHT22;7657;50.140;7.076;2023-08-17T13:16:35;25.60;99.90
15113;DHT22;7657;50.140;7.076;2023-08-17T13:19:02;25.80;99.90
15113;DHT22;7657;50.140;7.076;2023-08-17T13:21:29;25.90;99.90
15113;DHT22;7657;50.140;7.076;2023-08-17T13:23:57;26.10;99.90
15113;DHT22;7657;50.140;7.076;2023-08-17T13:26:24;26.30;99.90
15113;DHT22;7657;50.140;7.076;2023-08-17T13:28:51;26.30;99.90
15113;DHT22;7657;50.140;7.076;2023-08-17T13:31:18;26.30;99.90
15113;DHT22;7657;50.140;7.076;2023-08-17T13:33:45;26.30;99.90
15113;DHT22;7657;50.140;7.076;2023-08-17T13:36:12;26.30;99.90
15113;DHT22;7657;50.140;7.076;2023-08-17T13:38:39;26.30;99.90
15113;DHT22;7657;50.140;7.076;2023-08-17T13:41:07;26.20;99.90
15113;DHT22;7657;50.140;7.076;2023-08-17T13:43:34;26.20;99.90
15113;DHT22;7657;50.140;7.076;2023-08-17T13:46:01;26.30;99.90
15113;DHT22;7657;50.140;7.076;2023-08-17T13:48:28;26.10;99.90
15113;DHT22;7657;50.140;7.076;2023-08-17T13:50:55;26.10;99.90
15113;DHT22;7657;50.140;7.076;2023-08-17T13:53:22;26.00;99.90
15113;DHT22;7657;50.140;7.076;2023-08-17T13:55:49;26.00;99.90
15113;DHT22;7657;50.140;7.076;2023-08-17T13:58:17;26.10;99.90
15113;DHT22;7657;50.140;7.076;2023-08-17T14:00:44;26.30;99.90
15113;DHT22;7657;50.140;7.076;2023-08-17T14:03:11;26.30;99.90
15113;DHT22;7657;50.140;7.076;2023-08-17T14:05:38;26.40;99.90
15113;DHT22;7657;50.140;7.076;2023-08-17T14:08:05;26.80;99.90
15113;DHT22;7657;50.140;7.076;2023-08-17T14:10:33;26.90;99.90
15113;DHT22;7657;50.140;7.076;2023-08-17T14:13:01;27.00;99.90
15113;DHT22;7657;50.140;7.076;2023-08-17T14:15:30;27.20;99.90
15113;DHT22;7657;50.140;7.076;2023-08-17T14:17:56;26.90;99.90
15113;DHT22;7657;50.140;7.076;2023-08-17T14:20:23;26.80;99.90
15113;DHT22;7657;50.140;7.076;2023-08-17T14:22:51;26.90;99.90
15113;DHT22;7657;50.140;7.076;2023-08-17T14:25:18;27.40;99.90
15113;DHT22;7657;50.140;7.076;2023-08-17T14:27:45;27.70;99.90
15113;DHT22;7657;50.140;7.076;2023-08-17T14:30:12;27.90;99.90
15113;DHT22;7657;50.140;7.076;2023-08-17T14:32:40;27.90;99.90
15113;DHT22;7657;50.140;7.076;2023-08-17T14:35:07;27.90;99.90
15113;DHT22;7657;50.140;7.076;2023-08-17T14:37:34;28.20;99.90
15113;DHT22;7657;50.140;7.076;2023-08-17T14:40:01;28.60;99.90
15113;DHT22;7657;50.140;7.076;2023-08-17T14:42:28;29.00;99.90
15113;DHT22;7657;50.140;7.076;2023-08-17T14:44:55;29.10;99.90
15113;DHT22;7657;50.140;7.076;2023-08-17T14:47:22;29.40;99.90
15113;DHT22;7657;50.140;7.076;2023-08-17T14:49:50;29.80;99.90
15113;DHT22;7657;50.140;7.076;2023-08-17T14:52:19;30.00;99.90
15113;DHT22;7657;50.140;7.076;2023-08-17T14:54:45;30.10;99.90
15113;DHT22;7657;50.140;7.076;2023-08-17T14:57:13;30.30;99.90
15113;DHT22;7657;50.140;7.076;2023-08-17T14:59:39;30.60;99.90
15113;DHT22;7657;50.140;7.076;2023-08-17T15:02:06;31.00;99.90
15113;DHT22;7657;50.140;7.076;2023-08-17T15:04:35;30.90;99.90
15113;DHT22;7657;50.140;7.076;2023-08-17T15:07:05;30.60;99.90
15113;DHT22;7657;50.140;7.076;2023-08-17T15:09:36;30.50;99.90
15113;DHT22;7657;50.140;7.076;2023-08-17T15:12:03;30.80;99.90
15113;DHT22;7657;50.140;7.076;2023-08-17T15:14:30;31.20;99.90
15113;DHT22;7657;50.140;7.076;2023-08-17T15:16:57;31.60;99.90
15113;DHT22;7657;50.140;7.076;2023-08-17T15:19:24;31.60;99.90
15113;DHT22;7657;50.140;7.076;2023-08-17T15:21:51;31.70;99.90
15113;DHT22;7657;50.140;7.076;2023-08-17T15:24:19;31.80;99.90
15113;DHT22;7657;50.140;7.076;2023-08-17T15:26:46;32.40;99.90
15113;DHT22;7657;50.140;7.076;2023-08-17T15:29:13;32.60;99.90
15113;DHT22;7657;50.140;7.076;2023-08-17T15:31:40;32.50;99.90
15113;DHT22;7657;50.140;7.076;2023-08-17T15:34:06;32.30;99.90
15113;DHT22;7657;50.140;7.076;2023-08-17T15:36:33;32.60;99.90
15113;DHT22;7657;50.140;7.076;2023-08-17T15:39:00;32.80;99.90
15113;DHT22;7657;50.140;7.076;2023-08-17T15:41:28;32.90;99.90
15113;DHT22;7657;50.140;7.076;2023-08-17T15:43:55;32.90;99.90
15113;DHT22;7657;50.140;7.076;2023-08-17T15:46:22;33.20;99.90
15113;DHT22;7657;50.140;7.076;2023-08-17T15:48:49;33.30;99.90